Tiempo atmosférico en la estación meteorológica de Amieva, Panizales, Asturias (360 m.)



Fecha
DESCASC
Temp. máxima en grados centígrados (hora)
DESCASC
Temp. mínima en grados centígrados (hora)
DESCASC
Temp. media en grados centígrados
DESCASC
Racha de viento máxima en m/sg (hora)
DESCASC
Velocidad máxima media en intervalos de 10 minutos(hora)
DESCASC
Precipitaciones diarias en mm
DESCASC
Precipitaciones de 00:00 a 06:00 en mm
DESCASC
Precipitaciones de 06:00 a 12:00 en mm
DESCASC
Precipitaciones de 12:00 a 18:00 en mm
DESCASC
Precipitaciones de 18:00 a 24:00 en mm
DESCASC
16-01-2020 16.5 (14:30) 12.9 (21:40) 14.7 23.06 (13:10) 11.67 (13:10) 0 0 0 0 0
15-01-2020 17.3 (13:00) 6.6 (19:30) 11.9 20.28 (07:00) 10.56 (01:10) 0 0 0 0 0
14-01-2020 13.6 (13:50) 10.2 (08:10) 11.9 19.17 (07:50) 11.39 (07:50) 0.2 0 0.2 0 0
13-01-2020 18.6 (14:40) 2.6 (01:50) 10.6 16.39 (23:10) 10.28 (23:20) 0 0 0 0 0
12-01-2020 14.9 (14:20) 0.2 (00:00) 7.5 3.33 (10:20) 1.67 (14:20) 0 0 0 0 0
11-01-2020 12.4 (15:00) 0.6 (00:00) 6.5 3.06 (13:20) 1.67 (22:50) 0 0 0 0 0
10-01-2020 9.1 (13:40) 2.1 (00:00) 5.6 8.89 (03:30) 2.78 (03:30) 3.2 0.4 1 1.6 0.2
09-01-2020 20.2 (14:40) 5.4 (00:00) 12.8 13.89 (12:30) 8.33 (12:10) 1.4 0 0 1.4 0
08-01-2020 17.5 (15:40) 4.6 (00:00) 11 2.5 (20:50) 1.67 (14:10) 0 0 0 0 0
07-01-2020 14.3 (15:30) 1.9 (00:00) 8.1 3.33 (15:20) 1.67 (15:10) 0 0 0 0 0
06-01-2020 10.6 (16:20) 1 (00:00) 5.8 3.33 (13:10) 1.67 (18:20) 0 0 0 0 0
05-01-2020 12.8 (15:30) 1.2 (00:00) 7 3.61 (15:30) 2.22 (15:20) 0 0 0 0 0
04-01-2020 11.4 (15:20) 3.1 (00:00) 7.2 6.94 (15:20) 3.06 (15:20) 0 0 0 0 0
03-01-2020 9.6 (17:10) 2.4 (00:00) 6 2.78 (04:30) 1.39 (05:10) 2 0 1 0.8 0.2
02-01-2020 12.6 (14:50) 1.7 (00:00) 7.2 2.5 (14:30) 1.39 (14:50) 0 0 0 0 0
01-01-2020 12.8 (15:30) -0.1 (00:00) 6.4 3.61 (14:20) 2.22 (14:50) 0 0 0 0 0
31-12-2019 -- (--) -- (--) -- -- (--) -- (--) 0 0 0 0 0
30-12-2019 -- (--) -- (--) -- -- (--) -- (--) 0 0 0 0 0
29-12-2019 19.3 (14:40) 5.9 (00:00) 12.6 2.78 (12:00) 1.67 (12:00) 0 0 0 0 0
28-12-2019 15.4 (14:00) 1.7 (00:00) 8.5 2.78 (05:00) 1.11 (14:10) 0 0 0 0 0
27-12-2019 13.3 (15:20) -0.9 (-00:0) 6.2 2.78 (14:40) 1.39 (14:40) -- 0 -- 0 0
26-12-2019 18.5 (00:00) 2.6 (00:00) 10.5 10 (00:20) 6.67 (00:20) 0 0 0 0 0
25-12-2019 24 (14:30) 7.6 (00:00) 15.8 14.72 (14:30) 7.22 (16:20) 0 0 0 0 0
24-12-2019 21.1 (14:10) 7.5 (00:00) 14.3 9.17 (03:40) 5 (04:00) 0 0 0 0 0
23-12-2019 18.9 (14:50) 5.4 (00:00) 12.1 11.94 (14:40) 6.39 (12:40) 0 0 0 0 0
22-12-2019 17 (13:40) 8.7 (00:00) 12.8 13.06 (14:00) 7.78 (11:20) 1.4 1.4 0 0 0
21-12-2019 20 (12:40) 6.2 (00:00) 13.1 17.78 (10:00) 11.11 (10:00) 0.6 0.2 0 0.2 0.2
20-12-2019 12.1 (13:40) 6.2 (00:00) 9.2 11.94 (04:30) 6.94 (11:50) 7.4 2.6 0.4 0.4 4

Gráficas

Temp. máximas Temp. mínimas Temp. medias Precipitaciones Rachas de viento máximas Velocidades máximas media en intervalos de 10 minutos

Datos horarios

Fecha y hora oficial Temperatura (ºC) Velocidad del viento (km/h) Dirección del viento Racha (km/h) Dirección de racha Precipitación (mm) Presión (hPa) Tendencia (hPa) Humedad (%)
2020-01-18 23:00:00 7.4 0 Calma 9 Oeste 0 -- -- 89
2020-01-18 22:00:00 7.3 2 Noroeste 9 Norte 0 -- -- 91
2020-01-18 21:00:00 7.6 4 Norte 13 Nordeste 0 -- -- 87
2020-01-18 20:00:00 6.9 0 Calma 10 Noroeste 0.4 -- -- 95
2020-01-18 19:00:00 7.1 2 Oeste 8 Este 0 -- -- 92
2020-01-18 18:00:00 7.5 4 Sudeste 14 Sur 0.2 -- -- 89
2020-01-18 17:00:00 7.8 8 Este 19 Noroeste 3.8 -- -- 85
2020-01-18 16:00:00 8.5 3 Este 50 Oeste 3.6 -- -- 88
2020-01-18 15:00:00 15.2 24 Sudeste 53 Sur 0 -- -- 52
2020-01-18 14:00:00 13.5 26 Sudeste 55 Sur 0 -- -- 55
2020-01-18 13:00:00 15.9 22 Sudeste 46 Sudeste 0 -- -- 47
2020-01-18 12:00:00 15.2 23 Sudeste 62 Sudeste 0 -- -- 49
2020-01-18 11:00:00 13.4 24 Este 51 Este 0 -- -- 51
2020-01-18 10:00:00 11.1 22 Sudeste 63 Sur 0 -- -- 56
2020-01-18 09:00:00 11.2 23 Sudeste 57 Sur 0 -- -- 53
2020-01-18 08:00:00 11.6 23 Sudeste 55 Sudeste 0 -- -- 49
2020-01-18 07:00:00 11.5 20 Sudeste 46 Este 0 -- -- 51
2020-01-18 06:00:00 10.7 10 Sudeste 27 Este 0 -- -- 50
2020-01-18 05:00:00 6.9 7 Este 21 Este 0 -- -- 73
2020-01-18 04:00:00 5.4 3 Noroeste 6 Noroeste 0 -- -- 86
2020-01-18 03:00:00 5.4 3 Nordeste 6 Nordeste 0 -- -- 86
2020-01-18 02:00:00 5.3 0 Calma 4 Nordeste 0 -- -- 87
2020-01-18 01:00:00 5.3 0 Calma 4 Sudoeste 0 -- -- 85
2020-01-18 00:00:00 5.3 0 Calma 3 Oeste 0 -- -- 85
2020-01-17 23:00:00 4.8 0 Calma 4 Sur 0 -- -- 86
2020-01-17 22:00:00 4.4 0 Calma 4 Sudoeste 0 -- -- 85
2020-01-17 21:00:00 4.6 0 Calma 4 Este 0 -- -- 82
2020-01-17 20:00:00 5.2 3 Nordeste 4 Norte 0 -- -- 78
2020-01-17 19:00:00 6.5 0 Calma 8 Norte 0 -- -- 74
2020-01-17 18:00:00 8.4 5 Nordeste 8 Norte 0 -- -- 65
2020-01-17 17:00:00 10.6 3 Oeste 15 Oeste 0 -- -- 52
2020-01-17 16:00:00 12.8 6 Sudoeste 18 Oeste 0 -- -- 52
2020-01-17 15:00:00 12.4 6 Sudoeste 20 Sudoeste 0 -- -- 57
2020-01-17 14:00:00 11.5 3 Sudoeste 6 Oeste 0 -- -- 63
2020-01-17 13:00:00 11.3 3 Oeste 10 Sur 0 -- -- 64
2020-01-17 12:00:00 9.5 5 Sur 11 Sudoeste 0 -- -- 81
2020-01-17 11:00:00 7.8 2 Este 5 Este 0 -- -- 90
2020-01-17 10:00:00 5.8 0 Calma 5 Nordeste 0 -- -- 98
2020-01-17 09:00:00 4.5 2 Nordeste 5 Noroeste 0.2 -- -- 95
2020-01-17 08:00:00 6 3 Sudoeste 10 Sudeste 0 -- -- 92
2020-01-17 07:00:00 8 4 Norte 9 Norte 1.2 -- -- 86
2020-01-17 06:00:00 8.1 5 Norte 19 Nordeste 0.2 -- -- 87
2020-01-17 05:00:00 9.8 13 Nordeste 21 Nordeste 0 -- -- 75
2020-01-17 04:00:00 10.8 5 Norte 15 Nordeste 0 -- -- 66
2020-01-17 03:00:00 10.7 3 Nordeste 19 Sur 0 -- -- 75
2020-01-17 02:00:00 12.9 8 Sudeste 24 Este 0 -- -- 55
2020-01-17 01:00:00 13.5 16 Sudeste 31 Este 0 -- -- 53
2020-01-17 00:00:00 13.7 15 Sudeste 35 Sudeste 0 -- -- 52
2020-01-16 23:00:00 13.7 16 Sudeste 41 Sudeste 0 -- -- 54
2020-01-16 22:00:00 13 19 Sudeste 50 Este 0 -- -- 59
2020-01-16 21:00:00 13.1 23 Sudeste 50 Este 0 -- -- 58
2020-01-16 20:00:00 13.6 23 Sudeste 51 Sudeste 0 -- -- 56
2020-01-16 19:00:00 14.2 20 Sudeste 63 Sudeste 0 -- -- 55
2020-01-16 18:00:00 14.2 28 Sudeste 68 Sudeste 0 -- -- 56
2020-01-16 17:00:00 15.5 23 Sudeste 59 Sudeste 0 -- -- 50
2020-01-16 16:00:00 16.2 27 Sudeste 63 Sudeste 0 -- -- 48
2020-01-16 15:00:00 16.2 27 Sudeste 53 Sudeste 0 -- -- 49
2020-01-16 14:00:00 16.2 26 Sudeste 83 Sudeste 0 -- -- 52
2020-01-16 13:00:00 16.1 35 Sudeste 69 Sudeste 0 -- -- 53
2020-01-16 12:00:00 15.3 29 Sudeste 54 Sudeste 0 -- -- 60
2020-01-16 11:00:00 15.5 26 Sudeste 49 Sudeste 0 -- -- 58
2020-01-16 10:00:00 15.2 27 Sudeste 56 Sudeste 0 -- -- 60
2020-01-16 09:00:00 15.2 26 Sudeste 63 Sur 0 -- -- 61
2020-01-16 08:00:00 15.4 30 Sudeste 62 Sur 0 -- -- 59
2020-01-16 07:00:00 15.5 31 Sudeste 60 Sudeste 0 -- -- 57
2020-01-16 06:00:00 15.9 32 Sudeste 58 Sur 0 -- -- 52
2020-01-16 05:00:00 15.7 25 Sur 62 Sudeste 0 -- -- 52
2020-01-16 04:00:00 16.1 34 Sudeste 64 Sur 0 -- -- 54
2020-01-16 03:00:00 15.8 27 Sudeste 68 Sudeste 0 -- -- 57
2020-01-16 02:00:00 16 33 Sur 65 Sur 0 -- -- 55
2020-01-16 01:00:00 15.9 21 Sudeste 60 Este 0 -- -- 54
2020-01-16 00:00:00 15.4 14 Sudeste 44 Sudeste 0 -- -- 53
2020-01-15 23:00:00 14.8 22 Este 54 Sudeste 0 -- -- 50
2020-01-15 22:00:00 14.3 18 Sudeste 41 Sur 0 -- -- 49
2020-01-15 21:00:00 13.2 18 Sudeste 41 Sudeste 0 -- -- 54
2020-01-15 20:00:00 7.5 6 Norte 12 Sudoeste 0 -- -- 93
2020-01-15 19:00:00 6.8 0 Calma 5 Nordeste 0 -- -- 92
2020-01-15 18:00:00 8.9 0 Calma 14 Oeste 0 -- -- 85
2020-01-15 17:00:00 11 6 Oeste 19 Oeste 0 -- -- 80
2020-01-15 16:00:00 13.5 10 Oeste 26 Oeste 0 -- -- 74
2020-01-15 15:00:00 15.2 13 Sudoeste 25 Sudoeste 0 -- -- 71
2020-01-15 14:00:00 14.8 14 Norte 35 Sur 0 -- -- 68
2020-01-15 13:00:00 17.3 19 Sur 37 Sur 0 -- -- 50
2020-01-15 12:00:00 15.2 11 Sudeste 41 Sudeste 0 -- -- 52
2020-01-15 11:00:00 12.9 17 Sudeste 37 Sudeste 0 -- -- 64
2020-01-15 10:00:00 13.6 19 Sudeste 38 Sudeste 0 -- -- 58
2020-01-15 09:00:00 13.8 18 Sudeste 63 Sudeste 0 -- -- 57
2020-01-15 08:00:00 13.7 27 Sudeste 57 Sudeste 0 -- -- 57
2020-01-15 07:00:00 13.1 26 Sudeste 73 Este 0 -- -- 61
2020-01-15 06:00:00 13.7 27 Sudeste 68 Sudeste 0 -- -- 58
2020-01-15 05:00:00 13.7 29 Sudeste 53 Este 0 -- -- 58
2020-01-15 04:00:00 13.4 30 Sudeste 60 Sudeste 0 -- -- 58
2020-01-15 03:00:00 13.3 30 Sudeste 60 Sudeste 0 -- -- 58
2020-01-15 02:00:00 13.2 29 Sudeste 68 Sudeste 0 -- -- 57
2020-01-15 01:00:00 12.7 35 Sudeste 63 Sur 0 -- -- 57
2020-01-15 00:00:00 12.4 33 Sudeste 52 Sudeste 0 -- -- 59
2020-01-14 23:00:00 12.7 22 Sudeste 41 Sur 0 -- -- 56
2020-01-14 22:00:00 12.8 17 Sur 50 Sudeste 0 -- -- 53
2020-01-14 21:00:00 12.8 23 Sur 58 Sudeste 0 -- -- 54
2020-01-14 20:00:00 13 27 Sudeste 56 Sur 0 -- -- 53
2020-01-14 19:00:00 12.7 20 Sudeste 67 Sudeste 0 -- -- 53
2020-01-14 18:00:00 12.7 28 Sur 66 Sudeste 0 -- -- 53
2020-01-14 17:00:00 12.9 17 Sudeste 59 Sur 0 -- -- 50
2020-01-14 16:00:00 12.3 22 Este 62 Sudeste 0 -- -- 52
2020-01-14 15:00:00 13.6 23 Sudeste 60 Sudeste 0 -- -- 49
2020-01-14 14:00:00 12.7 22 Sudeste 60 Este 0 -- -- 50
2020-01-14 13:00:00 12.2 20 Sudeste 48 Sudeste 0 -- -- 52
2020-01-14 12:00:00 11.6 30 Sudeste 63 Sudeste 0 -- -- 56
2020-01-14 11:00:00 11.4 31 Sudeste 69 Sudeste 0 -- -- 57
2020-01-14 10:00:00 11.3 27 Sudeste 57 Sudeste 0 -- -- 57
2020-01-14 09:00:00 10.7 30 Sudeste 64 Sudeste 0 -- -- 61
2020-01-14 08:00:00 10.3 36 Sudeste 69 Sudeste 0.2 -- -- 67
2020-01-14 07:00:00 10.8 31 Sudeste 64 Sudeste 0 -- -- 61
2020-01-14 06:00:00 12 27 Sudeste 64 Este 0 -- -- 54
2020-01-14 05:00:00 12 36 Sudeste 64 Sudeste 0 -- -- 53
2020-01-14 04:00:00 12.1 30 Sudeste 63 Este 0 -- -- 51
2020-01-14 03:00:00 11.8 31 Sudeste 57 Este 0 -- -- 50
2020-01-14 02:00:00 12.2 22 Sudeste 50 Sudeste 0 -- -- 47
2020-01-14 01:00:00 12.5 26 Sudeste 53 Este 0 -- -- 45
2020-01-14 00:00:00 12.9 23 Sudeste 59 Sudeste 0 -- -- 43
2020-01-13 23:00:00 13.2 35 Sudeste 57 Sudeste 0 -- -- 41
2020-01-13 22:00:00 12.1 24 Este 58 Este 0 -- -- 41
2020-01-13 21:00:00 13 25 Sudeste 50 Sudeste 0 -- -- 36
2020-01-13 20:00:00 13.5 26 Sudeste 53 Sudeste 0 -- -- 32
2020-01-13 19:00:00 13.9 25 Sudeste 50 Este 0 -- -- 28
2020-01-13 18:00:00 14.5 25 Sudeste 48 Sudeste 0 -- -- 26
2020-01-13 17:00:00 15.4 19 Sudeste 42 Sudeste 0 -- -- 23
2020-01-13 16:00:00 17.1 21 Sudeste 46 Sudeste 0 -- -- 22
2020-01-13 15:00:00 17.9 20 Sudeste 42 Sur 0 -- -- 21
2020-01-13 14:00:00 16.8 19 Sudeste 44 Este 0 -- -- 22
2020-01-13 13:00:00 16.4 25 Sudeste 44 Sudeste 0 -- -- 24
2020-01-13 12:00:00 14.7 20 Este 43 Sudeste 0 -- -- 30
2020-01-13 11:00:00 10.2 14 Sudeste 26 Sur 0 -- -- 40
2020-01-13 10:00:00 6.8 5 Oeste 10 Oeste 0 -- -- 54
2020-01-13 09:00:00 5.6 0 Calma 8 Norte 0 -- -- 56
2020-01-13 08:00:00 6.3 3 Oeste 8 Noroeste 0 -- -- 53
2020-01-13 07:00:00 5.4 2 Noroeste 19 Sudoeste 0 -- -- 58
2020-01-13 06:00:00 5.3 0 Calma 12 Sudoeste 0 -- -- 59
2020-01-13 05:00:00 4.7 0 Calma 9 Sudeste 0 -- -- 65
2020-01-13 04:00:00 4.5 0 Calma 6 Nordeste 0 -- -- 67
2020-01-13 03:00:00 3.5 0 Calma 5 Noroeste 0 -- -- 77
2020-01-13 02:00:00 2.8 0 Calma 4 Norte 0 -- -- 84
2020-01-13 01:00:00 3.2 2 Nordeste 6 Nordeste 0 -- -- 83
2020-01-13 00:00:00 2.8 0 Calma 3 Este 0 -- -- 89
2020-01-12 23:00:00 4.2 3 Oeste 5 Oeste 0 -- -- 87
2020-01-12 22:00:00 5 0 Calma 5 Sudoeste 0 -- -- 83
2020-01-12 21:00:00 5.3 0 Calma 6 Oeste 0 -- -- 81
2020-01-12 20:00:00 5.4 2 Noroeste 4 Noroeste 0 -- -- 82
2020-01-12 19:00:00 5.7 0 Calma 2 Sur 0 -- -- 79
2020-01-12 18:00:00 7.9 2 Nordeste 4 Oeste 0 -- -- 69
2020-01-12 17:00:00 11.9 0 Calma 9 Sudoeste 0 -- -- 58
2020-01-12 16:00:00 14.5 5 Sudoeste 11 Oeste 0 -- -- 48
2020-01-12 15:00:00 13.8 3 Sudoeste 11 Oeste 0 -- -- 47
2020-01-12 14:00:00 14.3 5 Sudoeste 10 Oeste 0 -- -- 40
2020-01-12 13:00:00 12.6 4 Sur 8 Sudoeste 0 -- -- 48
2020-01-12 12:00:00 10.1 4 Sudoeste 9 Sur 0 -- -- 51
2020-01-12 11:00:00 6.9 5 Sudoeste 12 Sudoeste 0 -- -- 54
2020-01-12 10:00:00 3.3 0 Calma 9 Sudoeste 0 -- -- 68
2020-01-12 09:00:00 1.8 3 Oeste 9 Sur 0 -- -- 71
2020-01-12 08:00:00 0.2 0 Calma 9 Oeste 0 -- -- 79
2020-01-12 07:00:00 0.5 0 Calma 5 Oeste 0 -- -- 80
2020-01-12 06:00:00 0.4 0 Calma 5 Norte 0 -- -- 82
2020-01-12 05:00:00 0.8 0 Calma 5 Nordeste 0 -- -- 80
2020-01-12 04:00:00 0.9 0 Calma 5 Sudoeste 0 -- -- 83
2020-01-12 03:00:00 2.2 0 Calma 4 Nordeste 0 -- -- 80
2020-01-12 02:00:00 2.1 2 Norte 6 Oeste 0 -- -- 85
2020-01-12 01:00:00 1.6 0 Calma 5 Este 0 -- -- 88
2020-01-12 00:00:00 2.8 2 Sur 9 Noroeste 0 -- -- 86
2020-01-11 23:00:00 3.8 6 Noroeste 10 Noroeste 0 -- -- 84
2020-01-11 22:00:00 3 0 Calma 6 Noroeste 0 -- -- 88
2020-01-11 21:00:00 3.5 0 Calma 4 Sudoeste 0 -- -- 89
2020-01-11 20:00:00 4.2 0 Calma 6 Oeste 0 -- -- 88
2020-01-11 19:00:00 4.8 2 Sudoeste 4 Oeste 0 -- -- 87
2020-01-11 18:00:00 6.5 0 Calma 2 Nordeste 0 -- -- 82
2020-01-11 17:00:00 9.9 0 Calma 6 Sudoeste 0 -- -- 71
2020-01-11 16:00:00 11.1 2 Sur 8 Sudoeste 0 -- -- 69
2020-01-11 15:00:00 12.4 5 Sudoeste 11 Sudoeste 0 -- -- 67
2020-01-11 14:00:00 11.5 4 Sudoeste 11 Sur 0 -- -- 63
2020-01-11 13:00:00 10.1 4 Sudoeste 9 Sudeste 0 -- -- 63
2020-01-11 12:00:00 7.8 3 Sudeste 9 Sudeste 0 -- -- 72
2020-01-11 11:00:00 4.9 0 Calma 5 Sur 0 -- -- 80
2020-01-11 10:00:00 1.3 0 Calma 7 Noroeste 0 -- -- 96
2020-01-11 09:00:00 1 0 Calma 5 Norte 0 -- -- 97
2020-01-11 08:00:00 0.6 0 Calma 4 Este 0 -- -- 99
2020-01-11 07:00:00 1.1 0 Calma 5 Oeste 0 -- -- 97
2020-01-11 06:00:00 1.5 2 Nordeste 9 Nordeste 0 -- -- 98
2020-01-11 05:00:00 1 0 Calma 4 Norte 0 -- -- 100
2020-01-11 04:00:00 1.1 0 Calma 3 Oeste 0 -- -- 100
2020-01-11 03:00:00 1.3 0 Calma 6 Sur 0 -- -- 100
2020-01-11 02:00:00 1.4 0 Calma 6 Sudeste 0 -- -- 100
2020-01-11 01:00:00 1.7 0 Calma 3 Nordeste 0 -- -- 100
2020-01-11 00:00:00 2.1 0 Calma 4 Este 0 -- -- 100
2020-01-10 23:00:00 2.5 0 Calma 3 Este 0 -- -- 100
2020-01-10 22:00:00 3.1 0 Calma 6 Nordeste 0.2 -- -- 99
2020-01-10 21:00:00 4 0 Calma 4 Sudoeste 0 -- -- 100
2020-01-10 20:00:00 5 0 Calma 4 Nordeste 0 -- -- 98
2020-01-10 19:00:00 7 0 Calma 5 Norte 0 -- -- 97
2020-01-10 18:00:00 7.4 0 Calma 6 Oeste 0 -- -- 95
2020-01-10 17:00:00 8.1 0 Calma 4 Oeste 0.6 -- -- 96
2020-01-10 16:00:00 8.4 0 Calma 3 Sudeste 0 -- -- 90
2020-01-10 15:00:00 8.1 0 Calma 8 Oeste 1 -- -- 95
2020-01-10 14:00:00 8.7 4 Sudoeste 9 Oeste 0 -- -- 90
2020-01-10 13:00:00 8 0 Calma 6 Sudeste 0 -- -- 92
2020-01-10 12:00:00 7.1 0 Calma 9 Noroeste 0.2 -- -- 95
2020-01-10 11:00:00 6.9 0 Calma 6 Norte 0 -- -- 95
2020-01-10 10:00:00 5.8 0 Calma 5 Nordeste 0 -- -- 96
2020-01-10 09:00:00 5.8 0 Calma 7 Norte 0.6 -- -- 95
2020-01-10 08:00:00 6.1 4 Nordeste 7 Norte 0.2 -- -- 91
2020-01-10 07:00:00 6.3 4 Nordeste 9 Norte 0 -- -- 88
2020-01-10 06:00:00 6.7 7 Nordeste 14 Noroeste 0.2 -- -- 80
2020-01-10 05:00:00 6.6 3 Noroeste 15 Sudoeste 0 -- -- 79
2020-01-10 04:00:00 7.7 5 Norte 32 Oeste 0 -- -- 69
2020-01-10 03:00:00 7.8 6 Oeste 18 Oeste 0 -- -- 68
2020-01-10 02:00:00 7.3 4 Oeste 9 Norte 0 -- -- 83
2020-01-10 01:00:00 7.7 5 Nordeste 17 Nordeste 0.2 -- -- 79
2020-01-10 00:00:00 7.5 3 Norte 19 Norte 0 -- -- 78
2020-01-09 23:00:00 7.7 3 Norte 15 Sur 0 -- -- 76
2020-01-09 22:00:00 6.1 6 Este 16 Este 0 -- -- 80
2020-01-09 21:00:00 6.6 5 Norte 15 Oeste 0 -- -- 84
2020-01-09 20:00:00 6.4 3 Noroeste 11 Sudoeste 0 -- -- 94
2020-01-09 19:00:00 8.7 4 Noroeste 19 Nordeste 0 -- -- 87
2020-01-09 18:00:00 9.4 3 Nordeste 8 Este 0.4 -- -- 91
2020-01-09 17:00:00 9.9 4 Norte 18 Norte 0.8 -- -- 87
2020-01-09 16:00:00 10.4 6 Norte 28 Norte 0.2 -- -- 87
2020-01-09 15:00:00 17.1 8 Noroeste 35 Sur 0 -- -- 61
2020-01-09 14:00:00 18.8 22 Sur 47 Sur 0 -- -- 47
2020-01-09 13:00:00 18.1 22 Sudeste 50 Sudeste 0 -- -- 48
2020-01-09 12:00:00 17.8 28 Sudeste 49 Sudeste 0 -- -- 49
2020-01-09 11:00:00 16.9 21 Sudeste 39 Sudeste 0 -- -- 51
2020-01-09 10:00:00 14.8 19 Sudeste 40 Sudeste 0 -- -- 56
2020-01-09 09:00:00 9.7 5 Este 20 Sudeste 0 -- -- 67
2020-01-09 08:00:00 9.4 4 Oeste 12 Sudeste 0 -- -- 65
2020-01-09 07:00:00 8.5 3 Norte 6 Norte 0 -- -- 67
2020-01-09 06:00:00 9.3 4 Noroeste 10 Noroeste 0 -- -- 62
2020-01-09 05:00:00 8.3 4 Oeste 11 Nordeste 0 -- -- 67
2020-01-09 04:00:00 8.5 3 Nordeste 8 Sudoeste 0 -- -- 66
2020-01-09 03:00:00 7.5 2 Sudoeste 5 Sudoeste 0 -- -- 72
2020-01-09 02:00:00 6.4 0 Calma 6 Sudoeste 0 -- -- 75
2020-01-09 01:00:00 6.8 0 Calma 5 Noroeste 0 -- -- 72
2020-01-09 00:00:00 7.1 0 Calma 6 Sudoeste 0 -- -- 69
2020-01-08 23:00:00 8.5 0 Calma 8 Sur 0 -- -- 64
2020-01-08 22:00:00 7.6 0 Calma 6 Noroeste 0 -- -- 67
2020-01-08 21:00:00 8.2 3 Oeste 9 Sur 0 -- -- 63
2020-01-08 20:00:00 9 2 Sur 7 Sudoeste 0 -- -- 62
2020-01-08 19:00:00 9 0 Calma 8 Oeste 0 -- -- 66
2020-01-08 18:00:00 9.8 0 Calma 3 Noroeste 0 -- -- 64
2020-01-08 17:00:00 13.4 0 Calma 8 Sudoeste 0 -- -- 55
2020-01-08 16:00:00 17 4 Sudoeste 7 Sur 0 -- -- 41
2020-01-08 15:00:00 16.9 4 Sudoeste 9 Sur 0 -- -- 40
2020-01-08 14:00:00 16.2 5 Sudoeste 9 Sudoeste 0 -- -- 38
2020-01-08 13:00:00 14.7 4 Sur 7 Sur 0 -- -- 42
2020-01-08 12:00:00 12.9 4 Sur 8 Sur 0 -- -- 46
2020-01-08 11:00:00 8.8 2 Oeste 6 Sudoeste 0 -- -- 52
2020-01-08 10:00:00 5.9 0 Calma 5 Sudoeste 0 -- -- 61
2020-01-08 09:00:00 5 0 Calma 5 Nordeste 0 -- -- 65
2020-01-08 08:00:00 6.1 3 Oeste 6 Sur 0 -- -- 63
2020-01-08 07:00:00 5.8 0 Calma 6 Nordeste 0 -- -- 64
2020-01-08 06:00:00 4.9 0 Calma 7 Noroeste 0 -- -- 63
2020-01-08 05:00:00 6 2 Noroeste 6 Sur 0 -- -- 59
2020-01-08 04:00:00 5.2 0 Calma 5 Sur 0 -- -- 66
2020-01-08 03:00:00 5.1 0 Calma 5 Norte 0 -- -- 65
2020-01-08 02:00:00 5.9 2 Oeste 5 Noroeste 0 -- -- 61
2020-01-08 01:00:00 5.6 0 Calma 5 Oeste 0 -- -- 64
2020-01-08 00:00:00 5.9 3 Noroeste 8 Sur 0 -- -- 61
2020-01-07 23:00:00 5.7 2 Sudoeste 7 Oeste 0 -- -- 65
2020-01-07 22:00:00 6.7 4 Oeste 11 Sudoeste 0 -- -- 61
2020-01-07 21:00:00 6 0 Calma 6 Oeste 0 -- -- 69
2020-01-07 20:00:00 6.3 0 Calma 5 Norte 0 -- -- 70
2020-01-07 19:00:00 6.6 0 Calma 4 Oeste 0 -- -- 70
2020-01-07 18:00:00 8.5 3 Oeste 4 Oeste 0 -- -- 65
2020-01-07 17:00:00 10.9 0 Calma 8 Sudoeste 0 -- -- 58
2020-01-07 16:00:00 14 4 Sur 12 Sudoeste 0 -- -- 47
2020-01-07 15:00:00 14.1 6 Sudoeste 9 Sudoeste 0 -- -- 48
2020-01-07 14:00:00 12.8 4 Sur 8 Sudeste 0 -- -- 50
2020-01-07 13:00:00 11.2 4 Sur 9 Sudeste 0 -- -- 59
2020-01-07 12:00:00 10.9 3 Sur 6 Sur 0 -- -- 59
2020-01-07 11:00:00 8.1 0 Calma 5 Sudoeste 0 -- -- 59
2020-01-07 10:00:00 5.1 0 Calma 5 Noroeste 0 -- -- 66
2020-01-07 09:00:00 3.8 0 Calma 6 Este 0 -- -- 70
2020-01-07 08:00:00 3.5 0 Calma 5 Este 0 -- -- 68
2020-01-07 07:00:00 2.5 0 Calma 6 Sudoeste 0 -- -- 74
2020-01-07 06:00:00 3.2 2 Oeste 5 Noroeste 0 -- -- 72
2020-01-07 05:00:00 2.4 0 Calma 5 Sur 0 -- -- 78
2020-01-07 04:00:00 2.2 2 Noroeste 4 Sudoeste 0 -- -- 81
2020-01-07 03:00:00 2.8 0 Calma 4 Este 0 -- -- 79
2020-01-07 02:00:00 2.7 0 Calma 5 Nordeste 0 -- -- 84
2020-01-07 01:00:00 3.1 0 Calma 8 Este 0 -- -- 83
2020-01-07 00:00:00 3.3 0 Calma 6 Nordeste 0 -- -- 86
2020-01-06 23:00:00 4.2 0 Calma 10 Sudoeste 0 -- -- 86
2020-01-06 22:00:00 4.9 2 Noroeste 9 Sudoeste 0 -- -- 89
2020-01-06 21:00:00 4.9 2 Sudoeste 9 Sur 0 -- -- 92
2020-01-06 20:00:00 4.8 4 Este 7 Este 0 -- -- 98
2020-01-06 19:00:00 5.4 3 Nordeste 10 Noroeste 0 -- -- 91
2020-01-06 18:00:00 7 2 Norte 11 Norte 0 -- -- 83
2020-01-06 17:00:00 9 0 Calma 7 Sudeste 0 -- -- 80
2020-01-06 16:00:00 10.4 4 Sudoeste 8 Oeste 0 -- -- 76
2020-01-06 15:00:00 10.3 2 Sudeste 7 Sudoeste 0 -- -- 77
2020-01-06 14:00:00 10.1 4 Sudoeste 12 Sudoeste 0 -- -- 78
2020-01-06 13:00:00 9.9 5 Sur 9 Sudoeste 0 -- -- 72
2020-01-06 12:00:00 7.9 3 Sur 7 Sur 0 -- -- 75
2020-01-06 11:00:00 6.7 0 Calma 6 Este 0 -- -- 80
2020-01-06 10:00:00 2.1 0 Calma 8 Oeste 0 -- -- 94